Time,TemperatureF,DewpointF,PressureIn,WindDirection,WindDirectionDegrees,WindSpeedMPH,WindSpeedGustMPH,Humidity,HourlyPrecipIn,Conditions,Clouds,dailyrainin,SolarRadiationWatts/m^2,SoftwareType,DateUTC
2013-03-04 00:01:00,42.0,27.0,-100.00,SW,235,7.0,15.0,54,0.00,,,0.00,0.000000,,2013-03-04 07:01:00,
2013-03-04 00:11:00,42.0,27.0,-100.00,SW,235,7.0,15.0,54,0.00,,,0.00,0.000000,,2013-03-04 07:11:00,
2013-03-04 00:21:00,42.0,27.0,-100.00,SW,235,7.0,15.0,54,0.00,,,0.00,0.000000,,2013-03-04 07:21:00,
2013-03-04 00:30:00,41.0,27.0,-100.00,WSW,252,6.0,16.0,56,0.00,,,0.00,0.000000,,2013-03-04 07:30:00,
2013-03-04 00:52:00,41.0,27.0,-100.00,WSW,252,6.0,16.0,56,0.00,,,0.00,0.000000,,2013-03-04 07:52:00,
2013-03-04 01:01:00,41.0,27.0,-100.00,WSW,252,6.0,16.0,56,0.00,,,0.00,0.000000,,2013-03-04 08:01:00,
2013-03-04 01:11:00,41.0,27.0,-100.00,WSW,252,6.0,16.0,56,0.00,,,0.00,0.000000,,2013-03-04 08:11:00,
2013-03-04 01:21:00,41.0,27.0,-100.00,WSW,252,6.0,16.0,56,0.00,,,0.00,0.000000,,2013-03-04 08:21:00,
2013-03-04 01:30:00,41.0,28.0,-100.00,West,281,7.0,20.0,60,0.00,,,0.00,0.000000,,2013-03-04 08:30:00,
2013-03-04 01:52:00,41.0,28.0,-100.00,West,281,7.0,20.0,60,0.00,,,0.00,0.000000,,2013-03-04 08:52:00,
2013-03-04 02:01:00,41.0,28.0,-100.00,West,281,7.0,20.0,60,0.00,,,0.00,0.000000,,2013-03-04 09:01:00,
2013-03-04 02:11:00,41.0,28.0,-100.00,West,281,7.0,20.0,60,0.00,,,0.00,0.000000,,2013-03-04 09:11:00,
2013-03-04 02:21:00,41.0,28.0,-100.00,West,281,7.0,20.0,60,0.00,,,0.00,0.000000,,2013-03-04 09:21:00,
2013-03-04 02:30:00,40.0,27.0,-100.00,West,275,4.0,15.0,60,0.00,,,0.00,0.000000,,2013-03-04 09:30:00,
2013-03-04 02:52:00,40.0,27.0,-100.00,West,275,4.0,15.0,60,0.00,,,0.00,0.000000,,2013-03-04 09:52:00,
2013-03-04 03:01:00,40.0,27.0,-100.00,West,275,4.0,15.0,60,0.00,,,0.00,0.000000,,2013-03-04 10:01:00,
2013-03-04 03:11:00,40.0,27.0,-100.00,West,275,4.0,15.0,60,0.00,,,0.00,0.000000,,2013-03-04 10:11:00,
2013-03-04 03:21:00,40.0,27.0,-100.00,West,275,4.0,15.0,60,0.00,,,0.00,0.000000,,2013-03-04 10:21:00,
2013-03-04 03:30:00,39.0,26.0,-100.00,WNW,295,7.0,17.0,60,0.00,,,0.00,0.000000,,2013-03-04 10:30:00,
2013-03-04 03:52:00,39.0,26.0,-100.00,WNW,295,7.0,17.0,60,0.00,,,0.00,0.000000,,2013-03-04 10:52:00,
2013-03-04 04:01:00,39.0,26.0,-100.00,WNW,295,7.0,17.0,60,0.00,,,0.00,0.000000,,2013-03-04 11:01:00,
2013-03-04 04:11:00,39.0,26.0,-100.00,WNW,295,7.0,17.0,60,0.00,,,0.00,0.000000,,2013-03-04 11:11:00,
2013-03-04 04:21:00,39.0,26.0,-100.00,WNW,295,7.0,17.0,60,0.00,,,0.00,0.000000,,2013-03-04 11:21:00,
2013-03-04 04:30:00,39.0,23.0,-100.00,WSW,252,5.0,12.0,53,0.00,,,0.00,0.000000,,2013-03-04 11:30:00,
2013-03-04 04:52:00,39.0,23.0,-100.00,WSW,252,5.0,12.0,53,0.00,,,0.00,0.000000,,2013-03-04 11:52:00,
2013-03-04 05:01:00,39.0,23.0,-100.00,WSW,252,5.0,12.0,53,0.00,,,0.00,0.000000,,2013-03-04 12:01:00,
2013-03-04 05:11:00,39.0,23.0,-100.00,WSW,252,5.0,12.0,53,0.00,,,0.00,0.000000,,2013-03-04 12:11:00,
2013-03-04 05:22:00,39.0,23.0,-100.00,WSW,252,5.0,12.0,53,0.00,,,0.00,0.000000,,2013-03-04 12:22:00,
2013-03-04 05:30:00,36.0,28.0,-100.00,WNW,290,4.0,21.0,72,0.00,,,0.00,0.000000,,2013-03-04 12:30:00,
2013-03-04 05:53:00,36.0,28.0,-100.00,WNW,290,4.0,21.0,72,0.00,,,0.00,0.000000,,2013-03-04 12:53:00,
2013-03-04 06:02:00,36.0,28.0,-100.00,WNW,290,4.0,21.0,72,0.00,,,0.00,0.000000,,2013-03-04 13:02:00,
2013-03-04 06:11:00,36.0,28.0,-100.00,WNW,290,4.0,21.0,72,0.00,,,0.00,0.000000,,2013-03-04 13:11:00,
2013-03-04 06:21:00,36.0,28.0,-100.00,WNW,290,4.0,21.0,72,0.00,,,0.00,0.000000,,2013-03-04 13:21:00,
2013-03-04 06:30:00,35.0,28.0,-100.00,NNW,341,3.0,10.0,74,0.00,,,0.00,0.000000,,2013-03-04 13:30:00,
2013-03-04 06:52:00,35.0,28.0,-100.00,NNW,341,3.0,10.0,74,0.00,,,0.00,0.000000,,2013-03-04 13:52:00,
2013-03-04 07:01:00,35.0,28.0,-100.00,NNW,341,3.0,10.0,74,0.00,,,0.00,0.000000,,2013-03-04 14:01:00,
2013-03-04 07:11:00,35.0,28.0,-100.00,NNW,341,3.0,10.0,74,0.00,,,0.00,0.000000,,2013-03-04 14:11:00,
2013-03-04 07:22:00,35.0,28.0,-100.00,NNW,341,3.0,10.0,74,0.00,,,0.00,0.000000,,2013-03-04 14:22:00,
2013-03-04 07:30:00,36.0,29.0,-100.00,NW,314,5.0,9.0,75,0.00,,,0.00,33.000000,,2013-03-04 14:30:00,
2013-03-04 07:52:00,36.0,29.0,-100.00,NW,314,5.0,9.0,75,0.00,,,0.00,33.000000,,2013-03-04 14:52:00,
2013-03-04 08:01:00,36.0,29.0,-100.00,NW,314,5.0,9.0,75,0.00,,,0.00,33.000000,,2013-03-04 15:01:00,
2013-03-04 08:11:00,36.0,29.0,-100.00,NW,314,5.0,9.0,75,0.00,,,0.00,33.000000,,2013-03-04 15:11:00,
2013-03-04 08:21:00,36.0,29.0,-100.00,NW,314,5.0,9.0,75,0.00,,,0.00,33.000000,,2013-03-04 15:21:00,
2013-03-04 08:30:00,39.0,29.0,-100.00,NW,307,4.0,9.0,67,0.00,,,0.00,180.000000,,2013-03-04 15:30:00,
2013-03-04 08:52:00,39.0,29.0,-100.00,NW,307,4.0,9.0,67,0.00,,,0.00,180.000000,,2013-03-04 15:52:00,
2013-03-04 09:02:00,39.0,29.0,-100.00,NW,307,4.0,9.0,67,0.00,,,0.00,180.000000,,2013-03-04 16:02:00,
2013-03-04 09:11:00,39.0,29.0,-100.00,NW,307,4.0,9.0,67,0.00,,,0.00,180.000000,,2013-03-04 16:11:00,
2013-03-04 09:21:00,39.0,29.0,-100.00,NW,307,4.0,9.0,67,0.00,,,0.00,180.000000,,2013-03-04 16:21:00,
2013-03-04 09:30:00,39.0,31.0,-100.00,WNW,300,6.0,13.0,73,0.00,,,0.00,317.000000,,2013-03-04 16:30:00,
2013-03-04 09:52:00,39.0,31.0,-100.00,WNW,300,6.0,13.0,73,0.00,,,0.00,317.000000,,2013-03-04 16:52:00,
2013-03-04 10:02:00,39.0,31.0,-100.00,WNW,300,6.0,13.0,73,0.00,,,0.00,317.000000,,2013-03-04 17:02:00,
2013-03-04 10:11:00,39.0,31.0,-100.00,WNW,300,6.0,13.0,73,0.00,,,0.00,317.000000,,2013-03-04 17:11:00,
2013-03-04 10:21:00,39.0,31.0,-100.00,WNW,300,6.0,13.0,73,0.00,,,0.00,317.000000,,2013-03-04 17:21:00,
2013-03-04 10:30:00,37.0,30.0,-100.00,NW,315,8.0,16.0,77,0.00,,,0.00,199.000000,,2013-03-04 17:30:00,
2013-03-04 10:52:00,37.0,30.0,-100.00,NW,315,8.0,16.0,77,0.00,,,0.00,199.000000,,2013-03-04 17:52:00,
2013-03-04 11:01:00,37.0,30.0,-100.00,NW,315,8.0,16.0,77,0.00,,,0.00,199.000000,,2013-03-04 18:01:00,
2013-03-04 11:11:00,37.0,30.0,-100.00,NW,315,8.0,16.0,77,0.00,,,0.00,199.000000,,2013-03-04 18:11:00,
2013-03-04 11:21:00,37.0,30.0,-100.00,NW,315,8.0,16.0,77,0.00,,,0.00,199.000000,,2013-03-04 18:21:00,
2013-03-04 11:30:00,43.0,32.0,-100.00,WNW,297,7.0,14.0,65,0.00,,,0.00,486.000000,,2013-03-04 18:30:00,
2013-03-04 11:52:00,43.0,32.0,-100.00,WNW,297,7.0,14.0,65,0.00,,,0.00,486.000000,,2013-03-04 18:52:00,
2013-03-04 12:01:00,43.0,32.0,-100.00,WNW,297,7.0,14.0,65,0.00,,,0.00,486.000000,,2013-03-04 19:01:00,
2013-03-04 12:11:00,43.0,32.0,-100.00,WNW,297,7.0,14.0,65,0.00,,,0.00,486.000000,,2013-03-04 19:11:00,
2013-03-04 12:21:00,43.0,32.0,-100.00,WNW,297,7.0,14.0,65,0.00,,,0.00,486.000000,,2013-03-04 19:21:00,
2013-03-04 12:30:00,48.0,31.0,-100.00,West,279,7.0,17.0,51,0.00,,,0.00,931.000000,,2013-03-04 19:30:00,
2013-03-04 12:52:00,48.0,31.0,-100.00,West,279,7.0,17.0,51,0.00,,,0.00,931.000000,,2013-03-04 19:52:00,
2013-03-04 13:01:00,48.0,31.0,-100.00,West,279,7.0,17.0,51,0.00,,,0.00,931.000000,,2013-03-04 20:01:00,
2013-03-04 13:11:00,48.0,31.0,-100.00,West,279,7.0,17.0,51,0.00,,,0.00,931.000000,,2013-03-04 20:11:00,
2013-03-04 13:21:00,48.0,31.0,-100.00,West,279,7.0,17.0,51,0.00,,,0.00,931.000000,,2013-03-04 20:21:00,
2013-03-04 13:30:00,46.0,29.0,-100.00,West,274,5.0,18.0,52,0.00,,,0.00,658.000000,,2013-03-04 20:30:00,
2013-03-04 13:52:00,46.0,29.0,-100.00,West,274,5.0,18.0,52,0.00,,,0.00,658.000000,,2013-03-04 20:52:00,
2013-03-04 14:01:00,46.0,29.0,-100.00,West,274,5.0,18.0,52,0.00,,,0.00,658.000000,,2013-03-04 21:01:00,
2013-03-04 14:11:00,46.0,29.0,-100.00,West,274,5.0,18.0,52,0.00,,,0.00,658.000000,,2013-03-04 21:11:00,
2013-03-04 14:21:00,46.0,29.0,-100.00,West,274,5.0,18.0,52,0.00,,,0.00,658.000000,,2013-03-04 21:21:00,
2013-03-04 14:30:00,49.0,33.0,-100.00,NW,307,5.0,16.0,53,0.00,,,0.00,664.000000,,2013-03-04 21:30:00,
2013-03-04 14:52:00,49.0,33.0,-100.00,NW,307,5.0,16.0,53,0.00,,,0.00,664.000000,,2013-03-04 21:52:00,
2013-03-04 15:01:00,49.0,33.0,-100.00,NW,307,5.0,16.0,53,0.00,,,0.00,664.000000,,2013-03-04 22:01:00,
2013-03-04 15:11:00,49.0,33.0,-100.00,NW,307,5.0,16.0,53,0.00,,,0.00,664.000000,,2013-03-04 22:11:00,
2013-03-04 15:21:00,49.0,33.0,-100.00,NW,307,5.0,16.0,53,0.00,,,0.00,664.000000,,2013-03-04 22:21:00,
2013-03-04 15:30:00,43.0,30.0,-100.00,NW,326,7.0,18.0,60,0.00,,,0.00,313.000000,,2013-03-04 22:30:00,
2013-03-04 15:52:00,43.0,30.0,-100.00,NW,326,7.0,18.0,60,0.00,,,0.00,313.000000,,2013-03-04 22:52:00,
2013-03-04 16:01:00,43.0,30.0,-100.00,NW,326,7.0,18.0,60,0.00,,,0.00,313.000000,,2013-03-04 23:01:00,
2013-03-04 16:11:00,43.0,30.0,-100.00,NW,326,7.0,18.0,60,0.00,,,0.00,313.000000,,2013-03-04 23:11:00,
2013-03-04 16:21:00,43.0,30.0,-100.00,NW,326,7.0,18.0,60,0.00,,,0.00,313.000000,,2013-03-04 23:21:00,
2013-03-04 16:52:00,46.0,30.0,-100.00,North,356,6.0,24.0,53,0.01,,,0.01,364.000000,,2013-03-04 23:52:00,
2013-03-04 17:01:00,46.0,30.0,-100.00,North,356,6.0,24.0,53,0.01,,,0.01,364.000000,,2013-03-05 00:01:00,
2013-03-04 17:11:00,46.0,30.0,-100.00,North,356,6.0,24.0,53,0.01,,,0.01,364.000000,,2013-03-05 00:11:00,
2013-03-04 17:21:00,46.0,30.0,-100.00,North,356,6.0,24.0,53,0.01,,,0.01,364.000000,,2013-03-05 00:21:00,
2013-03-04 17:30:00,42.0,19.0,-100.00,NW,326,11.0,21.0,40,0.00,,,0.01,171.000000,,2013-03-05 00:30:00,
2013-03-04 17:52:00,42.0,19.0,-100.00,NW,326,11.0,21.0,40,0.00,,,0.01,171.000000,,2013-03-05 00:52:00,
2013-03-04 18:01:00,42.0,19.0,-100.00,NW,326,11.0,21.0,40,0.00,,,0.01,171.000000,,2013-03-05 01:01:00,
2013-03-04 18:12:00,42.0,19.0,-100.00,NW,326,11.0,21.0,40,0.00,,,0.01,171.000000,,2013-03-05 01:12:00,
2013-03-04 18:21:00,42.0,19.0,-100.00,NW,326,11.0,21.0,40,0.00,,,0.01,171.000000,,2013-03-05 01:21:00,
2013-03-04 18:30:00,39.0,18.0,-100.00,NNW,333,9.0,23.0,42,0.00,,,0.01,16.000000,,2013-03-05 01:30:00,
2013-03-04 18:52:00,39.0,18.0,-100.00,NNW,333,9.0,23.0,42,0.00,,,0.01,16.000000,,2013-03-05 01:52:00,
2013-03-04 19:01:00,39.0,18.0,-100.00,NNW,333,9.0,23.0,42,0.00,,,0.01,16.000000,,2013-03-05 02:01:00,
2013-03-04 19:11:00,39.0,18.0,-100.00,NNW,333,9.0,23.0,42,0.00,,,0.01,16.000000,,2013-03-05 02:11:00,
2013-03-04 19:21:00,39.0,18.0,-100.00,NNW,333,9.0,23.0,42,0.00,,,0.01,16.000000,,2013-03-05 02:21:00,
2013-03-04 19:30:00,37.0,16.0,-100.00,NNW,327,9.0,19.0,42,0.00,,,0.01,0.000000,,2013-03-05 02:30:00,
2013-03-04 19:52:00,37.0,16.0,-100.00,NNW,327,9.0,19.0,42,0.00,,,0.01,0.000000,,2013-03-05 02:52:00,
2013-03-04 20:01:00,37.0,16.0,-100.00,NNW,327,9.0,19.0,42,0.00,,,0.01,0.000000,,2013-03-05 03:01:00,
2013-03-04 20:12:00,37.0,16.0,-100.00,NNW,327,9.0,19.0,42,0.00,,,0.01,0.000000,,2013-03-05 03:12:00,
2013-03-04 20:21:00,37.0,16.0,-100.00,NNW,327,9.0,19.0,42,0.00,,,0.01,0.000000,,2013-03-05 03:21:00,
2013-03-04 20:30:00,35.0,14.0,-100.00,NNW,332,7.0,16.0,42,0.00,,,0.01,0.000000,,2013-03-05 03:30:00,
2013-03-04 20:52:00,35.0,14.0,-100.00,NNW,332,7.0,16.0,42,0.00,,,0.01,0.000000,,2013-03-05 03:52:00,
2013-03-04 21:01:00,35.0,14.0,-100.00,NNW,332,7.0,16.0,42,0.00,,,0.01,0.000000,,2013-03-05 04:01:00,
2013-03-04 21:11:00,35.0,14.0,-100.00,NNW,332,7.0,16.0,42,0.00,,,0.01,0.000000,,2013-03-05 04:11:00,
2013-03-04 21:21:00,35.0,14.0,-100.00,NNW,332,7.0,16.0,42,0.00,,,0.01,0.000000,,2013-03-05 04:21:00,
2013-03-04 21:30:00,33.0,12.0,-100.00,NNW,348,8.0,14.0,42,0.00,,,0.01,0.000000,,2013-03-05 04:30:00,
2013-03-04 21:52:00,33.0,12.0,-100.00,NNW,348,8.0,14.0,42,0.00,,,0.01,0.000000,,2013-03-05 04:52:00,
2013-03-04 22:01:00,33.0,12.0,-100.00,NNW,348,8.0,14.0,42,0.00,,,0.01,0.000000,,2013-03-05 05:01:00,
2013-03-04 22:11:00,33.0,12.0,-100.00,NNW,348,8.0,14.0,42,0.00,,,0.01,0.000000,,2013-03-05 05:11:00,
2013-03-04 22:22:00,33.0,12.0,-100.00,NNW,348,8.0,14.0,42,0.00,,,0.01,0.000000,,2013-03-05 05:22:00,
2013-03-04 22:30:00,32.0,14.0,-100.00,North,2,7.0,17.0,46,0.00,,,0.01,0.000000,,2013-03-05 05:30:00,
2013-03-04 22:52:00,32.0,14.0,-100.00,North,2,7.0,17.0,46,0.00,,,0.01,0.000000,,2013-03-05 05:52:00,
2013-03-04 23:01:00,32.0,14.0,-100.00,North,2,7.0,17.0,46,0.00,,,0.01,0.000000,,2013-03-05 06:01:00,
2013-03-04 23:11:00,32.0,14.0,-100.00,North,2,7.0,17.0,46,0.00,,,0.01,0.000000,,2013-03-05 06:11:00,
2013-03-04 23:22:00,32.0,14.0,-100.00,North,2,7.0,17.0,46,0.00,,,0.01,0.000000,,2013-03-05 06:22:00,
2013-03-04 23:30:00,32.0,13.0,-100.00,North,11,7.0,16.0,45,0.00,,,-99.99,0.000000,,2013-03-05 06:30:00,
2013-03-04 23:52:00,32.0,13.0,-100.00,North,11,7.0,16.0,45,0.00,,,-99.99,0.000000,,2013-03-05 06:52:00,